sensor_id;sensor_type;location;lat;lon;timestamp;P1;P4;P2;P0;N10;N4;N25;N1;N05;TS
62702;SPS30;66022;50.448;18.122;2023-04-08T00:03:26;24.56;;22.36;;;;;;;
62702;SPS30;66022;50.448;18.122;2023-04-08T00:07:39;53.36;;42.66;;;;;;;
62702;SPS30;66022;50.448;18.122;2023-04-08T00:11:53;53.36;;42.66;;;;;;;
62702;SPS30;66022;50.448;18.122;2023-04-08T00:16:10;56.86;;46.21;;;;;;;
62702;SPS30;66022;50.448;18.122;2023-04-08T00:20:22;56.86;;46.21;;;;;;;
62702;SPS30;66022;50.448;18.122;2023-04-08T00:24:35;45.45;;41.80;;;;;;;
62702;SPS30;66022;50.448;18.122;2023-04-08T00:28:49;45.45;;41.80;;;;;;;
62702;SPS30;66022;50.448;18.122;2023-04-08T00:33:03;45.45;;41.80;;;;;;;
62702;SPS30;66022;50.448;18.122;2023-04-08T00:37:17;48.94;;43.88;;;;;;;
62702;SPS30;66022;50.448;18.122;2023-04-08T00:41:32;48.94;;43.88;;;;;;;
62702;SPS30;66022;50.448;18.122;2023-04-08T00:45:45;46.51;;42.89;;;;;;;
62702;SPS30;66022;50.448;18.122;2023-04-08T00:49:59;46.51;;42.89;;;;;;;
62702;SPS30;66022;50.448;18.122;2023-04-08T00:54:16;46.51;;42.89;;;;;;;
62702;SPS30;66022;50.448;18.122;2023-04-08T00:58:27;40.77;;39.20;;;;;;;
62702;SPS30;66022;50.448;18.122;2023-04-08T01:06:56;35.76;;34.27;;;;;;;
62702;SPS30;66022;50.448;18.122;2023-04-08T01:11:09;35.76;;34.27;;;;;;;
62702;SPS30;66022;50.448;18.122;2023-04-08T01:15:23;37.10;;34.17;;;;;;;
62702;SPS30;66022;50.448;18.122;2023-04-08T01:19:38;37.10;;34.17;;;;;;;
62702;SPS30;66022;50.448;18.122;2023-04-08T01:24:10;37.10;;34.17;;;;;;;
62702;SPS30;66022;50.448;18.122;2023-04-08T01:28:06;36.27;;32.93;;;;;;;
62702;SPS30;66022;50.448;18.122;2023-04-08T01:32:19;36.27;;32.93;;;;;;;
62702;SPS30;66022;50.448;18.122;2023-04-08T01:36:34;40.10;;35.70;;;;;;;
62702;SPS30;66022;50.448;18.122;2023-04-08T01:40:47;40.10;;35.70;;;;;;;
62702;SPS30;66022;50.448;18.122;2023-04-08T01:45:01;34.63;;32.22;;;;;;;
62702;SPS30;66022;50.448;18.122;2023-04-08T01:49:15;34.63;;32.22;;;;;;;
62702;SPS30;66022;50.448;18.122;2023-04-08T01:53:29;34.63;;32.22;;;;;;;
62702;SPS30;66022;50.448;18.122;2023-04-08T01:57:43;35.56;;32.89;;;;;;;
62702;SPS30;66022;50.448;18.122;2023-04-08T02:01:57;35.56;;32.89;;;;;;;
62702;SPS30;66022;50.448;18.122;2023-04-08T02:06:11;30.63;;30.03;;;;;;;
62702;SPS30;66022;50.448;18.122;2023-04-08T02:10:25;30.63;;30.03;;;;;;;
62702;SPS30;66022;50.448;18.122;2023-04-08T02:14:39;27.10;;26.11;;;;;;;
62702;SPS30;66022;50.448;18.122;2023-04-08T02:18:57;27.10;;26.11;;;;;;;
62702;SPS30;66022;50.448;18.122;2023-04-08T02:23:13;27.10;;26.11;;;;;;;
62702;SPS30;66022;50.448;18.122;2023-04-08T02:27:21;28.89;;27.84;;;;;;;
62702;SPS30;66022;50.448;18.122;2023-04-08T02:31:35;28.89;;27.84;;;;;;;
62702;SPS30;66022;50.448;18.122;2023-04-08T02:35:49;32.30;;29.52;;;;;;;
62702;SPS30;66022;50.448;18.122;2023-04-08T02:40:03;32.30;;29.52;;;;;;;
62702;SPS30;66022;50.448;18.122;2023-04-08T02:44:16;26.05;;24.22;;;;;;;
62702;SPS30;66022;50.448;18.122;2023-04-08T02:48:31;26.05;;24.22;;;;;;;
62702;SPS30;66022;50.448;18.122;2023-04-08T02:52:45;26.05;;24.22;;;;;;;
62702;SPS30;66022;50.448;18.122;2023-04-08T02:56:59;31.01;;28.35;;;;;;;
62702;SPS30;66022;50.448;18.122;2023-04-08T03:01:13;31.01;;28.35;;;;;;;
62702;SPS30;66022;50.448;18.122;2023-04-08T03:05:27;31.77;;29.50;;;;;;;
62702;SPS30;66022;50.448;18.122;2023-04-08T03:09:40;31.77;;29.50;;;;;;;
62702;SPS30;66022;50.448;18.122;2023-04-08T03:13:55;31.77;;29.50;;;;;;;
62702;SPS30;66022;50.448;18.122;2023-04-08T03:18:09;38.31;;31.78;;;;;;;
62702;SPS30;66022;50.448;18.122;2023-04-08T03:22:23;38.31;;31.78;;;;;;;
62702;SPS30;66022;50.448;18.122;2023-04-08T03:26:37;32.97;;30.49;;;;;;;
62702;SPS30;66022;50.448;18.122;2023-04-08T03:30:51;32.97;;30.49;;;;;;;
62702;SPS30;66022;50.448;18.122;2023-04-08T03:35:05;37.66;;34.51;;;;;;;
62702;SPS30;66022;50.448;18.122;2023-04-08T03:39:19;37.66;;34.51;;;;;;;
62702;SPS30;66022;50.448;18.122;2023-04-08T03:43:33;37.66;;34.51;;;;;;;
62702;SPS30;66022;50.448;18.122;2023-04-08T03:47:47;32.57;;30.55;;;;;;;
62702;SPS30;66022;50.448;18.122;2023-04-08T03:52:01;32.57;;30.55;;;;;;;
62702;SPS30;66022;50.448;18.122;2023-04-08T03:56:15;34.25;;30.80;;;;;;;
62702;SPS30;66022;50.448;18.122;2023-04-08T04:00:29;34.25;;30.80;;;;;;;
62702;SPS30;66022;50.448;18.122;2023-04-08T04:04:43;31.64;;27.84;;;;;;;
62702;SPS30;66022;50.448;18.122;2023-04-08T04:08:57;31.64;;27.84;;;;;;;
62702;SPS30;66022;50.448;18.122;2023-04-08T04:13:11;31.64;;27.84;;;;;;;
62702;SPS30;66022;50.448;18.122;2023-04-08T04:17:25;37.35;;33.42;;;;;;;
62702;SPS30;66022;50.448;18.122;2023-04-08T04:21:39;37.35;;33.42;;;;;;;
62702;SPS30;66022;50.448;18.122;2023-04-08T04:25:53;33.74;;32.45;;;;;;;
62702;SPS30;66022;50.448;18.122;2023-04-08T04:30:07;33.74;;32.45;;;;;;;
62702;SPS30;66022;50.448;18.122;2023-04-08T04:34:21;38.47;;36.66;;;;;;;
62702;SPS30;66022;50.448;18.122;2023-04-08T04:38:35;38.47;;36.66;;;;;;;
62702;SPS30;66022;50.448;18.122;2023-04-08T04:42:49;38.47;;36.66;;;;;;;
62702;SPS30;66022;50.448;18.122;2023-04-08T04:47:03;41.49;;37.62;;;;;;;
62702;SPS30;66022;50.448;18.122;2023-04-08T04:51:17;41.49;;37.62;;;;;;;
62702;SPS30;66022;50.448;18.122;2023-04-08T04:55:31;37.29;;35.14;;;;;;;
62702;SPS30;66022;50.448;18.122;2023-04-08T04:59:45;37.29;;35.14;;;;;;;
62702;SPS30;66022;50.448;18.122;2023-04-08T05:03:59;37.29;;35.14;;;;;;;
62702;SPS30;66022;50.448;18.122;2023-04-08T05:08:13;38.05;;35.58;;;;;;;
62702;SPS30;66022;50.448;18.122;2023-04-08T05:12:27;38.05;;35.58;;;;;;;
62702;SPS30;66022;50.448;18.122;2023-04-08T05:16:41;34.27;;32.14;;;;;;;
62702;SPS30;66022;50.448;18.122;2023-04-08T05:20:55;34.27;;32.14;;;;;;;
62702;SPS30;66022;50.448;18.122;2023-04-08T05:25:09;37.64;;33.91;;;;;;;
62702;SPS30;66022;50.448;18.122;2023-04-08T05:29:23;37.64;;33.91;;;;;;;
62702;SPS30;66022;50.448;18.122;2023-04-08T05:33:37;37.64;;33.91;;;;;;;
62702;SPS30;66022;50.448;18.122;2023-04-08T05:37:51;70.00;;58.36;;;;;;;
62702;SPS30;66022;50.448;18.122;2023-04-08T05:42:05;70.00;;58.36;;;;;;;
62702;SPS30;66022;50.448;18.122;2023-04-08T05:46:19;35.59;;33.10;;;;;;;
62702;SPS30;66022;50.448;18.122;2023-04-08T05:50:34;35.59;;33.10;;;;;;;
62702;SPS30;66022;50.448;18.122;2023-04-08T05:54:47;34.34;;31.92;;;;;;;
62702;SPS30;66022;50.448;18.122;2023-04-08T05:59:01;34.34;;31.92;;;;;;;
62702;SPS30;66022;50.448;18.122;2023-04-08T06:03:15;34.34;;31.92;;;;;;;
62702;SPS30;66022;50.448;18.122;2023-04-08T06:07:29;28.90;;27.68;;;;;;;
62702;SPS30;66022;50.448;18.122;2023-04-08T06:11:43;28.90;;27.68;;;;;;;
62702;SPS30;66022;50.448;18.122;2023-04-08T06:15:57;30.35;;27.70;;;;;;;
62702;SPS30;66022;50.448;18.122;2023-04-08T06:20:11;30.35;;27.70;;;;;;;
62702;SPS30;66022;50.448;18.122;2023-04-08T06:24:25;31.29;;29.88;;;;;;;
62702;SPS30;66022;50.448;18.122;2023-04-08T06:28:39;31.29;;29.88;;;;;;;
62702;SPS30;66022;50.448;18.122;2023-04-08T06:32:53;31.29;;29.88;;;;;;;
62702;SPS30;66022;50.448;18.122;2023-04-08T06:37:07;38.78;;35.06;;;;;;;
62702;SPS30;66022;50.448;18.122;2023-04-08T06:41:21;38.78;;35.06;;;;;;;
62702;SPS30;66022;50.448;18.122;2023-04-08T06:45:36;32.30;;30.01;;;;;;;
62702;SPS30;66022;50.448;18.122;2023-04-08T06:49:49;32.30;;30.01;;;;;;;
62702;SPS30;66022;50.448;18.122;2023-04-08T06:54:03;32.30;;30.01;;;;;;;
62702;SPS30;66022;50.448;18.122;2023-04-08T06:58:17;36.27;;32.61;;;;;;;
62702;SPS30;66022;50.448;18.122;2023-04-08T07:02:31;36.27;;32.61;;;;;;;
62702;SPS30;66022;50.448;18.122;2023-04-08T07:06:45;34.40;;30.87;;;;;;;
62702;SPS30;66022;50.448;18.122;2023-04-08T07:10:59;34.40;;30.87;;;;;;;
62702;SPS30;66022;50.448;18.122;2023-04-08T07:15:13;33.46;;30.53;;;;;;;
62702;SPS30;66022;50.448;18.122;2023-04-08T07:19:27;33.46;;30.53;;;;;;;
62702;SPS30;66022;50.448;18.122;2023-04-08T07:23:41;33.46;;30.53;;;;;;;
62702;SPS30;66022;50.448;18.122;2023-04-08T07:27:55;32.66;;30.13;;;;;;;
62702;SPS30;66022;50.448;18.122;2023-04-08T07:32:09;32.66;;30.13;;;;;;;
62702;SPS30;66022;50.448;18.122;2023-04-08T07:36:23;30.88;;28.57;;;;;;;
62702;SPS30;66022;50.448;18.122;2023-04-08T07:40:37;30.88;;28.57;;;;;;;
62702;SPS30;66022;50.448;18.122;2023-04-08T07:44:51;28.29;;26.83;;;;;;;
62702;SPS30;66022;50.448;18.122;2023-04-08T07:49:05;28.29;;26.83;;;;;;;
62702;SPS30;66022;50.448;18.122;2023-04-08T07:53:19;28.29;;26.83;;;;;;;
62702;SPS30;66022;50.448;18.122;2023-04-08T07:57:33;25.53;;24.41;;;;;;;
62702;SPS30;66022;50.448;18.122;2023-04-08T08:01:47;25.53;;24.41;;;;;;;
62702;SPS30;66022;50.448;18.122;2023-04-08T08:06:01;27.56;;26.87;;;;;;;
62702;SPS30;66022;50.448;18.122;2023-04-08T08:10:15;27.56;;26.87;;;;;;;
62702;SPS30;66022;50.448;18.122;2023-04-08T08:14:32;29.02;;26.37;;;;;;;
62702;SPS30;66022;50.448;18.122;2023-04-08T08:18:43;29.02;;26.37;;;;;;;
62702;SPS30;66022;50.448;18.122;2023-04-08T08:22:57;29.02;;26.37;;;;;;;
62702;SPS30;66022;50.448;18.122;2023-04-08T08:27:11;26.69;;25.62;;;;;;;
62702;SPS30;66022;50.448;18.122;2023-04-08T08:31:25;26.69;;25.62;;;;;;;
62702;SPS30;66022;50.448;18.122;2023-04-08T08:35:39;25.75;;24.17;;;;;;;
62702;SPS30;66022;50.448;18.122;2023-04-08T08:39:53;25.75;;24.17;;;;;;;
62702;SPS30;66022;50.448;18.122;2023-04-08T08:44:07;25.75;;24.17;;;;;;;
62702;SPS30;66022;50.448;18.122;2023-04-08T08:48:21;23.90;;22.54;;;;;;;
62702;SPS30;66022;50.448;18.122;2023-04-08T08:52:35;23.90;;22.54;;;;;;;
62702;SPS30;66022;50.448;18.122;2023-04-08T08:56:49;24.18;;23.39;;;;;;;
62702;SPS30;66022;50.448;18.122;2023-04-08T09:01:25;24.18;;23.39;;;;;;;
62702;SPS30;66022;50.448;18.122;2023-04-08T09:05:17;21.84;;21.50;;;;;;;
62702;SPS30;66022;50.448;18.122;2023-04-08T09:09:46;21.84;;21.50;;;;;;;
62702;SPS30;66022;50.448;18.122;2023-04-08T09:13:45;21.84;;21.50;;;;;;;
62702;SPS30;66022;50.448;18.122;2023-04-08T09:17:59;21.69;;21.14;;;;;;;
62702;SPS30;66022;50.448;18.122;2023-04-08T09:22:13;21.69;;21.14;;;;;;;
62702;SPS30;66022;50.448;18.122;2023-04-08T09:26:27;21.20;;20.30;;;;;;;
62702;SPS30;66022;50.448;18.122;2023-04-08T09:30:41;21.20;;20.30;;;;;;;
62702;SPS30;66022;50.448;18.122;2023-04-08T09:34:55;20.49;;20.18;;;;;;;
62702;SPS30;66022;50.448;18.122;2023-04-08T09:39:09;20.49;;20.18;;;;;;;
62702;SPS30;66022;50.448;18.122;2023-04-08T09:43:23;20.49;;20.18;;;;;;;
62702;SPS30;66022;50.448;18.122;2023-04-08T09:47:41;17.98;;17.55;;;;;;;
62702;SPS30;66022;50.448;18.122;2023-04-08T09:51:52;17.98;;17.55;;;;;;;
62702;SPS30;66022;50.448;18.122;2023-04-08T09:56:06;19.10;;18.40;;;;;;;
62702;SPS30;66022;50.448;18.122;2023-04-08T10:00:19;19.10;;18.40;;;;;;;
62702;SPS30;66022;50.448;18.122;2023-04-08T10:04:34;20.52;;20.11;;;;;;;
62702;SPS30;66022;50.448;18.122;2023-04-08T10:08:47;20.52;;20.11;;;;;;;
62702;SPS30;66022;50.448;18.122;2023-04-08T10:13:01;20.52;;20.11;;;;;;;
62702;SPS30;66022;50.448;18.122;2023-04-08T10:21:35;21.45;;20.62;;;;;;;
62702;SPS30;66022;50.448;18.122;2023-04-08T10:25:43;24.77;;22.56;;;;;;;
62702;SPS30;66022;50.448;18.122;2023-04-08T10:29:57;24.77;;22.56;;;;;;;
62702;SPS30;66022;50.448;18.122;2023-04-08T10:34:14;24.77;;22.56;;;;;;;
62702;SPS30;66022;50.448;18.122;2023-04-08T10:38:25;20.73;;19.81;;;;;;;
62702;SPS30;66022;50.448;18.122;2023-04-08T10:42:39;20.73;;19.81;;;;;;;
62702;SPS30;66022;50.448;18.122;2023-04-08T10:46:53;22.40;;20.58;;;;;;;
62702;SPS30;66022;50.448;18.122;2023-04-08T10:51:07;22.40;;20.58;;;;;;;
62702;SPS30;66022;50.448;18.122;2023-04-08T10:55:22;22.80;;19.89;;;;;;;
62702;SPS30;66022;50.448;18.122;2023-04-08T10:59:35;22.80;;19.89;;;;;;;
62702;SPS30;66022;50.448;18.122;2023-04-08T11:03:49;22.80;;19.89;;;;;;;
62702;SPS30;66022;50.448;18.122;2023-04-08T11:08:03;19.37;;18.26;;;;;;;
62702;SPS30;66022;50.448;18.122;2023-04-08T11:12:17;19.37;;18.26;;;;;;;
62702;SPS30;66022;50.448;18.122;2023-04-08T11:16:31;23.94;;22.32;;;;;;;
62702;SPS30;66022;50.448;18.122;2023-04-08T11:20:45;23.94;;22.32;;;;;;;
62702;SPS30;66022;50.448;18.122;2023-04-08T11:24:59;17.64;;17.09;;;;;;;
62702;SPS30;66022;50.448;18.122;2023-04-08T11:29:13;17.64;;17.09;;;;;;;
62702;SPS30;66022;50.448;18.122;2023-04-08T11:33:29;17.64;;17.09;;;;;;;
62702;SPS30;66022;50.448;18.122;2023-04-08T11:37:41;17.27;;16.84;;;;;;;
62702;SPS30;66022;50.448;18.122;2023-04-08T11:41:55;17.27;;16.84;;;;;;;
62702;SPS30;66022;50.448;18.122;2023-04-08T11:46:10;16.76;;15.98;;;;;;;
62702;SPS30;66022;50.448;18.122;2023-04-08T11:50:24;16.76;;15.98;;;;;;;
62702;SPS30;66022;50.448;18.122;2023-04-08T11:54:40;17.82;;16.49;;;;;;;
62702;SPS30;66022;50.448;18.122;2023-04-08T11:58:51;17.82;;16.49;;;;;;;
62702;SPS30;66022;50.448;18.122;2023-04-08T12:03:05;17.82;;16.49;;;;;;;
62702;SPS30;66022;50.448;18.122;2023-04-08T12:07:19;18.53;;17.10;;;;;;;
62702;SPS30;66022;50.448;18.122;2023-04-08T12:11:33;18.53;;17.10;;;;;;;
62702;SPS30;66022;50.448;18.122;2023-04-08T12:15:47;20.69;;19.38;;;;;;;
62702;SPS30;66022;50.448;18.122;2023-04-08T12:20:01;20.69;;19.38;;;;;;;
62702;SPS30;66022;50.448;18.122;2023-04-08T12:24:15;17.84;;17.23;;;;;;;
62702;SPS30;66022;50.448;18.122;2023-04-08T12:28:29;17.84;;17.23;;;;;;;
62702;SPS30;66022;50.448;18.122;2023-04-08T12:32:43;17.84;;17.23;;;;;;;
62702;SPS30;66022;50.448;18.122;2023-04-08T12:36:57;19.78;;18.75;;;;;;;
62702;SPS30;66022;50.448;18.122;2023-04-08T12:41:11;19.78;;18.75;;;;;;;
62702;SPS30;66022;50.448;18.122;2023-04-08T12:45:25;20.64;;19.49;;;;;;;
62702;SPS30;66022;50.448;18.122;2023-04-08T12:49:39;20.64;;19.49;;;;;;;
62702;SPS30;66022;50.448;18.122;2023-04-08T12:53:54;20.64;;19.49;;;;;;;
62702;SPS30;66022;50.448;18.122;2023-04-08T12:58:07;17.90;;16.83;;;;;;;
62702;SPS30;66022;50.448;18.122;2023-04-08T13:02:21;17.90;;16.83;;;;;;;
62702;SPS30;66022;50.448;18.122;2023-04-08T13:06:35;16.85;;16.40;;;;;;;
62702;SPS30;66022;50.448;18.122;2023-04-08T13:10:49;16.85;;16.40;;;;;;;
62702;SPS30;66022;50.448;18.122;2023-04-08T13:15:03;22.75;;22.12;;;;;;;
62702;SPS30;66022;50.448;18.122;2023-04-08T13:19:17;22.75;;22.12;;;;;;;
62702;SPS30;66022;50.448;18.122;2023-04-08T13:23:31;22.75;;22.12;;;;;;;
62702;SPS30;66022;50.448;18.122;2023-04-08T13:27:45;16.99;;16.99;;;;;;;
62702;SPS30;66022;50.448;18.122;2023-04-08T13:31:59;16.99;;16.99;;;;;;;
62702;SPS30;66022;50.448;18.122;2023-04-08T13:36:13;18.30;;17.87;;;;;;;
62702;SPS30;66022;50.448;18.122;2023-04-08T13:40:27;18.30;;17.87;;;;;;;
62702;SPS30;66022;50.448;18.122;2023-04-08T13:44:41;17.93;;17.74;;;;;;;
62702;SPS30;66022;50.448;18.122;2023-04-08T13:48:55;17.93;;17.74;;;;;;;
62702;SPS30;66022;50.448;18.122;2023-04-08T13:53:09;17.93;;17.74;;;;;;;
62702;SPS30;66022;50.448;18.122;2023-04-08T13:57:23;17.75;;17.63;;;;;;;
62702;SPS30;66022;50.448;18.122;2023-04-08T14:01:37;17.75;;17.63;;;;;;;
62702;SPS30;66022;50.448;18.122;2023-04-08T14:05:51;17.79;;17.19;;;;;;;
62702;SPS30;66022;50.448;18.122;2023-04-08T14:10:06;17.79;;17.19;;;;;;;
62702;SPS30;66022;50.448;18.122;2023-04-08T14:14:22;23.83;;22.08;;;;;;;
62702;SPS30;66022;50.448;18.122;2023-04-08T14:18:34;23.83;;22.08;;;;;;;
62702;SPS30;66022;50.448;18.122;2023-04-08T14:22:47;23.83;;22.08;;;;;;;
62702;SPS30;66022;50.448;18.122;2023-04-08T14:27:01;25.26;;24.25;;;;;;;
62702;SPS30;66022;50.448;18.122;2023-04-08T14:31:16;25.26;;24.25;;;;;;;
62702;SPS30;66022;50.448;18.122;2023-04-08T14:35:29;22.78;;21.89;;;;;;;
62702;SPS30;66022;50.448;18.122;2023-04-08T14:39:43;22.78;;21.89;;;;;;;
62702;SPS30;66022;50.448;18.122;2023-04-08T14:43:57;22.78;;21.89;;;;;;;
62702;SPS30;66022;50.448;18.122;2023-04-08T14:48:11;27.60;;26.05;;;;;;;
62702;SPS30;66022;50.448;18.122;2023-04-08T14:52:28;27.60;;26.05;;;;;;;
62702;SPS30;66022;50.448;18.122;2023-04-08T14:56:39;25.04;;23.96;;;;;;;
62702;SPS30;66022;50.448;18.122;2023-04-08T15:00:53;25.04;;23.96;;;;;;;
62702;SPS30;66022;50.448;18.122;2023-04-08T15:05:07;35.90;;33.15;;;;;;;
62702;SPS30;66022;50.448;18.122;2023-04-08T15:09:21;35.90;;33.15;;;;;;;
62702;SPS30;66022;50.448;18.122;2023-04-08T15:13:35;35.90;;33.15;;;;;;;
62702;SPS30;66022;50.448;18.122;2023-04-08T15:17:49;36.46;;34.01;;;;;;;
62702;SPS30;66022;50.448;18.122;2023-04-08T15:22:06;36.46;;34.01;;;;;;;
62702;SPS30;66022;50.448;18.122;2023-04-08T15:26:17;34.12;;32.13;;;;;;;
62702;SPS30;66022;50.448;18.122;2023-04-08T15:30:31;34.12;;32.13;;;;;;;
62702;SPS30;66022;50.448;18.122;2023-04-08T15:34:46;26.06;;24.63;;;;;;;
62702;SPS30;66022;50.448;18.122;2023-04-08T15:39:04;26.06;;24.63;;;;;;;
62702;SPS30;66022;50.448;18.122;2023-04-08T15:43:15;26.06;;24.63;;;;;;;
62702;SPS30;66022;50.448;18.122;2023-04-08T15:47:27;30.28;;27.54;;;;;;;
62702;SPS30;66022;50.448;18.122;2023-04-08T15:51:41;30.28;;27.54;;;;;;;
62702;SPS30;66022;50.448;18.122;2023-04-08T15:56:01;31.78;;30.02;;;;;;;
62702;SPS30;66022;50.448;18.122;2023-04-08T16:00:10;31.78;;30.02;;;;;;;
62702;SPS30;66022;50.448;18.122;2023-04-08T16:04:23;29.74;;27.39;;;;;;;
62702;SPS30;66022;50.448;18.122;2023-04-08T16:08:38;29.74;;27.39;;;;;;;
62702;SPS30;66022;50.448;18.122;2023-04-08T16:12:51;29.74;;27.39;;;;;;;
62702;SPS30;66022;50.448;18.122;2023-04-08T16:17:05;36.62;;33.08;;;;;;;
62702;SPS30;66022;50.448;18.122;2023-04-08T16:21:19;36.62;;33.08;;;;;;;
62702;SPS30;66022;50.448;18.122;2023-04-08T16:25:33;34.87;;33.47;;;;;;;
62702;SPS30;66022;50.448;18.122;2023-04-08T16:29:47;34.87;;33.47;;;;;;;
62702;SPS30;66022;50.448;18.122;2023-04-08T16:34:01;34.87;;33.47;;;;;;;
62702;SPS30;66022;50.448;18.122;2023-04-08T16:38:15;38.10;;34.86;;;;;;;
62702;SPS30;66022;50.448;18.122;2023-04-08T16:42:30;38.10;;34.86;;;;;;;
62702;SPS30;66022;50.448;18.122;2023-04-08T16:46:43;35.32;;33.60;;;;;;;
62702;SPS30;66022;50.448;18.122;2023-04-08T16:50:57;35.32;;33.60;;;;;;;
62702;SPS30;66022;50.448;18.122;2023-04-08T16:55:11;38.92;;34.57;;;;;;;
62702;SPS30;66022;50.448;18.122;2023-04-08T16:59:26;38.92;;34.57;;;;;;;
62702;SPS30;66022;50.448;18.122;2023-04-08T17:03:39;38.92;;34.57;;;;;;;
62702;SPS30;66022;50.448;18.122;2023-04-08T17:07:57;35.41;;31.78;;;;;;;
62702;SPS30;66022;50.448;18.122;2023-04-08T17:12:08;35.41;;31.78;;;;;;;
62702;SPS30;66022;50.448;18.122;2023-04-08T17:16:22;39.69;;34.96;;;;;;;
62702;SPS30;66022;50.448;18.122;2023-04-08T17:20:36;39.69;;34.96;;;;;;;
62702;SPS30;66022;50.448;18.122;2023-04-08T17:24:50;54.28;;53.36;;;;;;;
62702;SPS30;66022;50.448;18.122;2023-04-08T17:29:04;54.28;;53.36;;;;;;;
62702;SPS30;66022;50.448;18.122;2023-04-08T17:33:18;54.28;;53.36;;;;;;;
62702;SPS30;66022;50.448;18.122;2023-04-08T17:37:31;50.49;;46.90;;;;;;;
62702;SPS30;66022;50.448;18.122;2023-04-08T17:41:46;50.49;;46.90;;;;;;;
62702;SPS30;66022;50.448;18.122;2023-04-08T17:46:00;56.11;;52.79;;;;;;;
62702;SPS30;66022;50.448;18.122;2023-04-08T17:50:15;56.11;;52.79;;;;;;;
62702;SPS30;66022;50.448;18.122;2023-04-08T17:54:28;38.48;;35.21;;;;;;;
62702;SPS30;66022;50.448;18.122;2023-04-08T17:58:44;38.48;;35.21;;;;;;;
62702;SPS30;66022;50.448;18.122;2023-04-08T18:02:56;38.48;;35.21;;;;;;;
62702;SPS30;66022;50.448;18.122;2023-04-08T18:07:10;34.67;;33.14;;;;;;;
62702;SPS30;66022;50.448;18.122;2023-04-08T18:11:26;34.67;;33.14;;;;;;;
62702;SPS30;66022;50.448;18.122;2023-04-08T18:15:38;72.33;;65.14;;;;;;;
62702;SPS30;66022;50.448;18.122;2023-04-08T18:19:52;72.33;;65.14;;;;;;;
62702;SPS30;66022;50.448;18.122;2023-04-08T18:24:05;72.33;;65.14;;;;;;;
62702;SPS30;66022;50.448;18.122;2023-04-08T18:28:19;43.33;;40.41;;;;;;;
62702;SPS30;66022;50.448;18.122;2023-04-08T18:32:34;43.33;;40.41;;;;;;;
62702;SPS30;66022;50.448;18.122;2023-04-08T18:36:47;39.57;;38.01;;;;;;;
62702;SPS30;66022;50.448;18.122;2023-04-08T18:41:02;39.57;;38.01;;;;;;;
62702;SPS30;66022;50.448;18.122;2023-04-08T18:45:16;31.88;;30.84;;;;;;;
62702;SPS30;66022;50.448;18.122;2023-04-08T18:49:29;31.88;;30.84;;;;;;;
62702;SPS30;66022;50.448;18.122;2023-04-08T18:53:44;31.88;;30.84;;;;;;;
62702;SPS30;66022;50.448;18.122;2023-04-08T18:57:57;30.70;;29.16;;;;;;;
62702;SPS30;66022;50.448;18.122;2023-04-08T19:02:12;30.70;;29.16;;;;;;;
62702;SPS30;66022;50.448;18.122;2023-04-08T19:06:25;36.59;;34.54;;;;;;;
62702;SPS30;66022;50.448;18.122;2023-04-08T19:10:40;36.59;;34.54;;;;;;;
62702;SPS30;66022;50.448;18.122;2023-04-08T19:14:54;29.68;;28.90;;;;;;;
62702;SPS30;66022;50.448;18.122;2023-04-08T19:19:08;29.68;;28.90;;;;;;;
62702;SPS30;66022;50.448;18.122;2023-04-08T19:23:22;29.68;;28.90;;;;;;;
62702;SPS30;66022;50.448;18.122;2023-04-08T19:27:36;43.54;;39.60;;;;;;;
62702;SPS30;66022;50.448;18.122;2023-04-08T19:31:50;43.54;;39.60;;;;;;;
62702;SPS30;66022;50.448;18.122;2023-04-08T19:36:04;31.27;;30.21;;;;;;;
62702;SPS30;66022;50.448;18.122;2023-04-08T19:40:18;31.27;;30.21;;;;;;;
62702;SPS30;66022;50.448;18.122;2023-04-08T19:44:35;37.30;;33.59;;;;;;;
62702;SPS30;66022;50.448;18.122;2023-04-08T19:48:46;37.30;;33.59;;;;;;;
62702;SPS30;66022;50.448;18.122;2023-04-08T19:53:00;37.30;;33.59;;;;;;;
62702;SPS30;66022;50.448;18.122;2023-04-08T19:57:14;31.63;;29.39;;;;;;;
62702;SPS30;66022;50.448;18.122;2023-04-08T20:01:28;31.63;;29.39;;;;;;;
62702;SPS30;66022;50.448;18.122;2023-04-08T20:05:44;26.00;;25.79;;;;;;;
62702;SPS30;66022;50.448;18.122;2023-04-08T20:09:56;26.00;;25.79;;;;;;;
62702;SPS30;66022;50.448;18.122;2023-04-08T20:14:10;26.00;;25.79;;;;;;;
62702;SPS30;66022;50.448;18.122;2023-04-08T20:18:24;28.34;;26.52;;;;;;;
62702;SPS30;66022;50.448;18.122;2023-04-08T20:22:41;28.34;;26.52;;;;;;;
62702;SPS30;66022;50.448;18.122;2023-04-08T20:26:52;26.69;;25.04;;;;;;;
62702;SPS30;66022;50.448;18.122;2023-04-08T20:31:06;26.69;;25.04;;;;;;;
62702;SPS30;66022;50.448;18.122;2023-04-08T20:35:20;31.94;;29.15;;;;;;;
62702;SPS30;66022;50.448;18.122;2023-04-08T20:39:34;31.94;;29.15;;;;;;;
62702;SPS30;66022;50.448;18.122;2023-04-08T20:43:51;31.94;;29.15;;;;;;;
62702;SPS30;66022;50.448;18.122;2023-04-08T20:48:02;22.82;;21.03;;;;;;;
62702;SPS30;66022;50.448;18.122;2023-04-08T20:52:16;22.82;;21.03;;;;;;;
62702;SPS30;66022;50.448;18.122;2023-04-08T20:56:33;20.00;;19.61;;;;;;;
62702;SPS30;66022;50.448;18.122;2023-04-08T21:00:44;20.00;;19.61;;;;;;;
62702;SPS30;66022;50.448;18.122;2023-04-08T21:04:58;20.69;;19.99;;;;;;;
62702;SPS30;66022;50.448;18.122;2023-04-08T21:09:12;20.69;;19.99;;;;;;;
62702;SPS30;66022;50.448;18.122;2023-04-08T21:13:29;20.69;;19.99;;;;;;;
62702;SPS30;66022;50.448;18.122;2023-04-08T21:17:40;26.96;;25.14;;;;;;;
62702;SPS30;66022;50.448;18.122;2023-04-08T21:21:54;26.96;;25.14;;;;;;;
62702;SPS30;66022;50.448;18.122;2023-04-08T21:26:11;28.56;;26.49;;;;;;;
62702;SPS30;66022;50.448;18.122;2023-04-08T21:30:22;28.56;;26.49;;;;;;;
62702;SPS30;66022;50.448;18.122;2023-04-08T21:34:36;29.92;;26.49;;;;;;;
62702;SPS30;66022;50.448;18.122;2023-04-08T21:38:50;29.92;;26.49;;;;;;;
62702;SPS30;66022;50.448;18.122;2023-04-08T21:43:04;29.92;;26.49;;;;;;;
62702;SPS30;66022;50.448;18.122;2023-04-08T21:47:21;36.16;;33.32;;;;;;;
62702;SPS30;66022;50.448;18.122;2023-04-08T21:51:32;36.16;;33.32;;;;;;;
62702;SPS30;66022;50.448;18.122;2023-04-08T21:55:46;30.70;;27.37;;;;;;;
62702;SPS30;66022;50.448;18.122;2023-04-08T22:00:00;30.70;;27.37;;;;;;;
62702;SPS30;66022;50.448;18.122;2023-04-08T22:04:14;30.70;;27.37;;;;;;;
62702;SPS30;66022;50.448;18.122;2023-04-08T22:08:28;109.87;;87.40;;;;;;;
62702;SPS30;66022;50.448;18.122;2023-04-08T22:12:42;109.87;;87.40;;;;;;;
62702;SPS30;66022;50.448;18.122;2023-04-08T22:16:56;39.90;;37.12;;;;;;;
62702;SPS30;66022;50.448;18.122;2023-04-08T22:21:10;39.90;;37.12;;;;;;;
62702;SPS30;66022;50.448;18.122;2023-04-08T22:25:24;41.65;;38.00;;;;;;;
62702;SPS30;66022;50.448;18.122;2023-04-08T22:29:38;41.65;;38.00;;;;;;;
62702;SPS30;66022;50.448;18.122;2023-04-08T22:33:52;41.65;;38.00;;;;;;;
62702;SPS30;66022;50.448;18.122;2023-04-08T22:38:06;51.01;;45.03;;;;;;;
62702;SPS30;66022;50.448;18.122;2023-04-08T22:42:20;51.01;;45.03;;;;;;;
62702;SPS30;66022;50.448;18.122;2023-04-08T22:46:34;38.77;;36.31;;;;;;;
62702;SPS30;66022;50.448;18.122;2023-04-08T22:50:48;38.77;;36.31;;;;;;;
62702;SPS30;66022;50.448;18.122;2023-04-08T22:55:02;39.00;;37.31;;;;;;;
62702;SPS30;66022;50.448;18.122;2023-04-08T22:59:16;39.00;;37.31;;;;;;;
62702;SPS30;66022;50.448;18.122;2023-04-08T23:03:30;39.00;;37.31;;;;;;;
62702;SPS30;66022;50.448;18.122;2023-04-08T23:07:44;50.27;;44.64;;;;;;;
62702;SPS30;66022;50.448;18.122;2023-04-08T23:11:58;50.27;;44.64;;;;;;;
62702;SPS30;66022;50.448;18.122;2023-04-08T23:16:12;40.40;;37.96;;;;;;;
62702;SPS30;66022;50.448;18.122;2023-04-08T23:20:26;40.40;;37.96;;;;;;;
62702;SPS30;66022;50.448;18.122;2023-04-08T23:24:40;47.10;;41.27;;;;;;;
62702;SPS30;66022;50.448;18.122;2023-04-08T23:28:54;47.10;;41.27;;;;;;;
62702;SPS30;66022;50.448;18.122;2023-04-08T23:33:08;47.10;;41.27;;;;;;;